Time;durP1;ratioP1;P1;durP2;ratioP2;P2;SDS_P1;SDS_P2;PMS_P1;PMS_P2;Temp;Humidity;BMP_temperature;BMP_pressure;BME280_temperature;BME280_humidity;BME280_pressure;Samples;Min_cycle;Max_cycle;Signal;HPM_P1;HPM_P2
2023/06/19 00:00:39;;;;;;;16.83;10.67;;;23.40;1.00;;;;;;5033430;28;20172;-74
2023/06/19 00:03:05;;;;;;;12.43;10.17;;;23.40;1.00;;;;;;5032343;28;20174;-74
2023/06/19 00:05:31;;;;;;;14.53;10.50;;;23.40;1.00;;;;;;5032800;28;20433;-74
2023/06/19 00:07:56;;;;;;;21.90;11.10;;;23.40;1.00;;;;;;5033382;28;20420;-74
2023/06/19 00:10:50;;;;;;;17.00;10.40;;;23.40;1.00;;;;;;5041064;28;20211;-82
2023/06/19 00:13:55;;;;;;;13.93;9.70;;;23.40;1.00;;;;;;5041476;28;20620;-82
2023/06/19 00:16:32;;;;;;;13.83;10.07;;;23.40;1.00;;;;;;5031276;28;20436;-82
2023/06/19 00:22:20;;;;;;;14.60;10.13;;;23.40;1.00;;;;;;5024138;28;20409;-82
2023/06/19 00:24:59;;;;;;;21.70;11.10;;;23.40;1.00;;;;;;5036788;28;20426;-82
2023/06/19 00:27:26;;;;;;;15.37;10.50;;;23.40;1.00;;;;;;5038134;28;20422;-82
2023/06/19 00:33:13;;;;;;;15.70;10.50;;;23.40;1.00;;;;;;5018575;28;20477;-82
2023/06/19 00:36:10;;;;;;;18.10;11.07;;;23.40;1.00;;;;;;5031991;28;20495;-82
2023/06/19 00:38:39;;;;;;;13.43;10.00;;;23.40;1.00;;;;;;5036964;28;20177;-82
2023/06/19 00:41:05;;;;;;;18.83;12.47;;;23.40;1.00;;;;;;5036862;28;20417;-74
2023/06/19 00:43:32;;;;;;;16.80;10.73;;;23.40;1.00;;;;;;5036878;28;20881;-74
2023/06/19 00:45:58;;;;;;;13.10;10.43;;;23.30;1.00;;;;;;5035142;28;20476;-74
2023/06/19 00:48:27;;;;;;;13.73;10.80;;;23.30;1.00;;;;;;5035890;28;20418;-74
2023/06/19 00:50:57;;;;;;;13.93;10.97;;;23.20;1.00;;;;;;5036707;28;20466;-74
2023/06/19 00:53:23;;;;;;;15.53;10.80;;;23.20;1.00;;;;;;5051624;28;20788;-73
2023/06/19 00:55:51;;;;;;;14.90;10.27;;;23.10;1.00;;;;;;5017338;28;20470;-74
2023/06/19 00:58:21;;;;;;;13.90;10.87;;;23.00;1.00;;;;;;5027716;28;20430;-74
2023/06/19 01:00:47;;;;;;;17.47;10.40;;;22.90;1.00;;;;;;5036522;28;20407;-74
2023/06/19 01:03:13;;;;;;;14.80;11.13;;;22.80;1.00;;;;;;5035119;28;20437;-74
2023/06/19 01:05:39;;;;;;;13.37;10.87;;;22.70;1.00;;;;;;5036372;28;20419;-74
2023/06/19 01:08:27;;;;;;;13.53;10.37;;;22.60;1.00;;;;;;5035974;28;20436;-74
2023/06/19 01:14:39;;;;;;;16.50;10.47;;;22.40;1.00;;;;;;5035501;28;20465;-82
2023/06/19 01:20:39;;;;;;;22.00;11.30;;;22.00;1.00;;;;;;5035858;28;20395;-82
2023/06/19 01:23:55;;;;;;;16.13;10.70;;;21.70;1.00;;;;;;5031839;28;20421;-82
2023/06/19 01:26:27;;;;;;;16.10;11.27;;;21.70;1.00;;;;;;5036010;28;20419;-82
2023/06/19 01:29:20;;;;;;;15.40;10.80;;;21.60;1.00;;;;;;5031405;28;20467;-82
2023/06/19 01:32:02;;;;;;;15.33;10.70;;;21.50;1.00;;;;;;5024182;28;20439;-82
2023/06/19 01:38:08;;;;;;;13.17;10.83;;;21.50;1.00;;;;;;5036302;28;20437;-82
2023/06/19 01:40:40;;;;;;;17.70;10.10;;;21.60;1.00;;;;;;5035786;28;20395;-75
2023/06/19 01:43:09;;;;;;;14.13;11.00;;;21.60;1.00;;;;;;5035459;28;20423;-74
2023/06/19 01:45:35;;;;;;;14.33;10.17;;;21.40;1.00;;;;;;5035566;28;20410;-74
2023/06/19 01:48:02;;;;;;;13.03;9.87;;;21.50;1.00;;;;;;5035405;28;20451;-74
2023/06/19 01:50:28;;;;;;;16.20;11.17;;;21.50;1.00;;;;;;5035343;28;20482;-74
2023/06/19 01:52:56;;;;;;;14.07;10.57;;;21.50;1.00;;;;;;5034249;28;20430;-74
2023/06/19 01:55:26;;;;;;;17.00;10.20;;;21.50;1.00;;;;;;5035618;28;20534;-74
2023/06/19 02:04:50;;;;;;;13.90;10.70;;;21.40;1.00;;;;;;5028006;28;20407;-82
2023/06/19 02:07:20;;;;;;;13.70;10.90;;;21.40;1.00;;;;;;5035018;28;20934;-82
2023/06/19 02:09:57;;;;;;;19.83;10.53;;;21.30;1.00;;;;;;5035190;28;20461;-82
2023/06/19 02:12:26;;;;;;;12.70;9.87;;;21.20;1.00;;;;;;5035148;28;20444;-82
2023/06/19 02:15:02;;;;;;;16.10;11.13;;;21.20;1.00;;;;;;5037544;28;20520;-82
2023/06/19 02:17:38;;;;;;;13.40;9.63;;;21.20;1.00;;;;;;5054072;28;20942;-82
2023/06/19 02:20:26;;;;;;;14.27;10.67;;;21.10;1.00;;;;;;5035853;28;20983;-82
2023/06/19 02:23:26;;;;;;;16.17;10.43;;;21.00;1.00;;;;;;5034003;28;20434;-82
2023/06/19 02:26:28;;;;;;;17.90;11.13;;;21.00;1.00;;;;;;5024265;28;20998;-82
2023/06/19 02:28:56;;;;;;;12.20;10.30;;;20.80;1.00;;;;;;5038668;28;20515;-82
2023/06/19 02:31:56;;;;;;;16.17;11.00;;;20.60;1.00;;;;;;5040856;28;20432;-82
2023/06/19 02:34:32;;;;;;;14.90;10.97;;;20.50;1.00;;;;;;5044202;28;20449;-82
2023/06/19 02:41:01;;;;;;;15.90;11.23;;;20.30;1.00;;;;;;5035558;28;20431;-82
2023/06/19 02:43:55;;;;;;;12.60;10.40;;;20.10;1.00;;;;;;5034875;28;20414;-84
2023/06/19 02:46:50;;;;;;;12.87;10.37;;;20.00;1.00;;;;;;5034462;28;20420;-84
2023/06/19 02:49:55;;;;;;;13.40;10.63;;;19.80;1.00;;;;;;5043814;28;20416;-84
2023/06/19 02:52:32;;;;;;;16.10;10.97;;;19.80;1.00;;;;;;5032738;28;20445;-84
2023/06/19 02:58:29;;;;;;;15.90;11.37;;;19.80;1.00;;;;;;5034754;28;20408;-84
2023/06/19 03:00:56;;;;;;;13.40;11.10;;;19.80;1.00;;;;;;5049841;28;20424;-84
2023/06/19 03:03:56;;;;;;;18.30;11.40;;;19.70;1.00;;;;;;5050093;28;20396;-84
2023/06/19 03:09:56;;;;;;;14.57;11.50;;;19.60;1.00;;;;;;5042393;28;20447;-83
2023/06/19 03:12:26;;;;;;;18.33;11.33;;;19.50;1.00;;;;;;5033631;28;20904;-85
2023/06/19 03:14:56;;;;;;;14.10;11.20;;;19.50;1.00;;;;;;5028462;28;20451;-84
2023/06/19 03:17:26;;;;;;;14.70;11.63;;;19.50;1.00;;;;;;5044139;28;20437;-84
2023/06/19 03:19:56;;;;;;;15.90;11.20;;;19.50;1.00;;;;;;5030257;28;20435;-83
2023/06/19 03:22:32;;;;;;;15.50;11.47;;;19.50;1.00;;;;;;5049536;28;20411;-84
2023/06/19 03:28:26;;;;;;;14.70;10.83;;;19.60;1.00;;;;;;5034166;28;20405;-84
2023/06/19 03:30:56;;;;;;;13.77;11.07;;;19.70;1.00;;;;;;5033063;28;20982;-84
2023/06/19 03:34:14;;;;;;;14.60;11.67;;;19.70;1.00;;;;;;5032667;28;20441;-83
2023/06/19 03:36:39;;;;;;;22.13;11.90;;;19.80;1.00;;;;;;5032696;28;20427;-84
2023/06/19 03:39:05;;;;;;;14.07;11.70;;;19.80;1.00;;;;;;5031713;28;20971;-84
2023/06/19 03:41:56;;;;;;;18.53;11.73;;;19.80;1.00;;;;;;5034112;28;20178;-84
2023/06/19 03:51:26;;;;;;;15.63;11.53;;;20.00;1.00;;;;;;5034015;28;20451;-92
2023/06/19 03:54:18;;;;;;;16.70;11.77;;;20.00;1.00;;;;;;5030765;28;20421;-92
2023/06/19 03:56:43;;;;;;;15.93;11.67;;;20.10;1.00;;;;;;5017690;28;20473;-92
2023/06/19 04:02:30;;;;;;;13.23;10.47;;;20.30;1.00;;;;;;5018425;28;20189;-92
2023/06/19 04:05:26;;;;;;;12.60;10.80;;;20.40;1.00;;;;;;5017417;28;20414;-93
2023/06/19 04:11:14;;;;;;;20.40;10.37;;;;;;;;;;5038029;28;20400;-92
2023/06/19 04:14:14;;;;;;;12.13;10.00;;;20.60;1.00;;;;;;5031685;28;21027;-84
2023/06/19 04:17:02;;;;;;;12.77;10.30;;;20.70;1.00;;;;;;5035765;28;20430;-84
2023/06/19 04:19:56;;;;;;;11.33;9.07;;;20.70;1.00;;;;;;5033918;28;20437;-84
2023/06/19 04:22:26;;;;;;;16.20;9.90;;;20.80;1.00;;;;;;5037298;28;20444;-84
2023/06/19 04:24:56;;;;;;;11.40;9.00;;;20.90;1.00;;;;;;5037347;28;20408;-84
2023/06/19 04:27:56;;;;;;;13.07;9.70;;;21.00;1.00;;;;;;5037225;28;20516;-88
2023/06/19 04:30:59;;;;;;;18.30;10.00;;;21.00;1.00;;;;;;5049070;28;20439;-89
2023/06/19 04:33:28;;;;;;;14.00;10.37;;;21.10;1.00;;;;;;5064959;28;20548;-89
2023/06/19 04:36:26;;;;;;;13.67;9.10;;;21.20;1.00;;;;;;5037283;28;20456;-89
2023/06/19 04:38:51;;;;;;;12.10;8.60;;;21.30;1.00;;;;;;5036135;28;20439;-89
2023/06/19 04:41:20;;;;;;;13.43;8.83;;;21.40;1.00;;;;;;5037294;28;20440;-89
2023/06/19 04:43:46;;;;;;;11.10;9.30;;;21.40;1.00;;;;;;5036090;28;20183;-89
2023/06/19 04:46:26;;;;;;;10.37;8.97;;;21.50;1.00;;;;;;5023520;28;20471;-89
2023/06/19 04:48:56;;;;;;;10.63;8.90;;;21.50;1.00;;;;;;5034353;28;20194;-89
2023/06/19 04:51:56;;;;;;;13.13;8.53;;;21.50;1.00;;;;;;5048308;28;20433;-90
2023/06/19 04:54:23;;;;;;;16.17;8.13;;;21.70;1.00;;;;;;5023038;28;20447;-90
2023/06/19 04:57:22;;;;;;;9.73;7.70;;;21.80;1.00;;;;;;5037050;28;20455;-89
2023/06/19 05:00:14;;;;;;;7.30;6.60;;;21.90;1.00;;;;;;5037121;28;20431;-89
2023/06/19 05:03:34;;;;;;;7.37;6.50;;;21.90;1.00;;;;;;5045875;28;20491;-89
2023/06/19 05:09:26;;;;;;;9.33;5.80;;;22.10;1.00;;;;;;5037074;28;20506;-90
2023/06/19 05:12:20;;;;;;;6.60;5.07;;;22.10;1.00;;;;;;5036592;28;20429;-90
2023/06/19 05:18:07;;;;;;;7.70;6.20;;;22.20;1.00;;;;;;5034570;28;20435;-90
2023/06/19 05:21:14;;;;;;;11.30;6.40;;;22.30;1.00;;;;;;5035027;28;20424;-90
2023/06/19 05:27:26;;;;;;;5.97;5.37;;;22.70;1.00;;;;;;5035831;28;20441;-89
2023/06/19 05:33:38;;;;;;;11.50;5.60;;;22.70;1.00;;;;;;5024992;28;20424;-90
2023/06/19 05:40:14;;;;;;;5.67;5.17;;;22.80;1.00;;;;;;5033890;28;20534;-90
2023/06/19 05:43:14;;;;;;;7.20;4.57;;;22.90;1.00;;;;;;5032147;28;20453;-86
2023/06/19 05:46:25;;;;;;;9.60;5.00;;;22.80;1.00;;;;;;5033902;28;20448;-91
2023/06/19 05:48:51;;;;;;;14.40;4.60;;;22.90;1.00;;;;;;5031064;28;20458;-91
2023/06/19 05:54:53;;;;;;;4.97;4.43;;;23.10;1.00;;;;;;5018631;28;20228;-94
2023/06/19 06:00:44;;;;;;;6.13;4.90;;;23.30;1.00;;;;;;5032254;28;20446;-93
2023/06/19 06:03:38;;;;;;;4.67;4.27;;;23.30;1.00;;;;;;5034649;28;20524;-94
2023/06/19 06:06:08;;;;;;;5.87;4.23;;;23.40;1.00;;;;;;5032453;28;20430;-95
2023/06/19 06:11:55;;;;;;;5.23;4.60;;;23.50;1.00;;;;;;5043477;28;20999;-94
2023/06/19 06:17:44;;;;;;;11.23;4.90;;;23.60;1.00;;;;;;5032955;28;20234;-84
2023/06/19 06:20:14;;;;;;;7.50;4.70;;;23.60;1.00;;;;;;5032718;28;20443;-84
2023/06/19 06:22:56;;;;;;;4.37;4.00;;;23.60;1.00;;;;;;5027743;28;20430;-84
2023/06/19 06:25:38;;;;;;;5.80;4.13;;;23.70;1.00;;;;;;5033773;28;20418;-84
2023/06/19 06:28:26;;;;;;;3.90;3.50;;;23.70;1.00;;;;;;5032952;28;20548;-85
2023/06/19 06:34:14;;;;;;;3.87;3.57;;;23.80;1.00;;;;;;5027701;28;20453;-84
2023/06/19 06:36:52;;;;;;;4.13;3.63;;;23.90;1.00;;;;;;5047644;28;20425;-83
2023/06/19 06:39:38;;;;;;;5.60;4.07;;;24.00;1.00;;;;;;5034443;28;20286;-84
2023/06/19 06:45:44;;;;;;;5.03;3.93;;;24.30;1.00;;;;;;5030374;28;20521;-84
2023/06/19 06:48:38;;;;;;;6.53;3.73;;;24.40;1.00;;;;;;5033434;28;20856;-84
2023/06/19 06:54:50;;;;;;;3.90;3.60;;;24.70;1.00;;;;;;5034157;28;20463;-84
2023/06/19 06:57:32;;;;;;;3.83;3.40;;;24.80;1.00;;;;;;5033013;28;20802;-84
2023/06/19 07:00:26;;;;;;;4.73;3.20;;;25.10;1.00;;;;;;5030627;28;20438;-84
2023/06/19 07:06:56;;;;;;;5.77;3.20;;;25.30;1.00;;;;;;5031570;28;20470;-84
2023/06/19 07:12:49;;;;;;;3.10;2.90;;;25.50;1.00;;;;;;5044791;28;20788;-84
2023/06/19 07:18:38;;;;;;;4.50;3.47;;;25.80;1.00;;;;;;5026892;28;20471;-94
2023/06/19 07:21:12;;;;;;;3.43;2.93;;;25.80;1.00;;;;;;5059631;28;20431;-93
2023/06/19 07:24:32;;;;;;;5.20;3.00;;;26.20;1.00;;;;;;5053237;28;20419;-93
2023/06/19 07:26:57;;;;;;;3.80;3.43;;;26.40;1.00;;;;;;5031004;28;20424;-85
2023/06/19 07:29:50;;;;;;;3.07;2.80;;;26.70;1.00;;;;;;5032307;28;22082;-90
2023/06/19 07:33:08;;;;;;;4.23;3.37;;;26.70;1.00;;;;;;5046753;28;20185;-87
2023/06/19 07:38:55;;;;;;;3.70;3.40;;;26.60;1.00;;;;;;5034213;28;20412;-90
2023/06/19 07:44:45;;;;;;;5.13;3.60;;;26.70;1.00;;;;;;5034544;28;20404;-84
2023/06/19 07:47:32;;;;;;;5.03;3.60;;;26.50;1.00;;;;;;5032821;28;20416;-84
2023/06/19 07:50:38;;;;;;;3.57;3.27;;;26.50;1.00;;;;;;5031746;28;20423;-83
2023/06/19 07:57:02;;;;;;;6.13;3.70;;;26.30;1.00;;;;;;5029898;28;20451;-84
2023/06/19 08:02:56;;;;;;;3.97;3.30;;;26.50;1.00;;;;;;5033517;28;20394;-84
2023/06/19 08:09:26;;;;;;;4.83;3.50;;;26.50;1.00;;;;;;5024317;28;20410;-84
2023/06/19 08:12:08;;;;;;;12.77;4.13;;;26.30;1.00;;;;;;5040541;28;20407;-83
2023/06/19 08:14:44;;;;;;;5.53;3.30;;;26.50;1.00;;;;;;5038673;28;20524;-84
2023/06/19 08:17:20;;;;;;;4.27;3.87;;;26.60;1.00;;;;;;5025429;28;20485;-84
2023/06/19 08:20:06;;;;;;;5.63;3.97;;;26.50;1.00;;;;;;5015489;28;20952;-83
2023/06/19 08:22:56;;;;;;;5.83;3.53;;;26.30;1.00;;;;;;5033646;28;20442;-84
2023/06/19 08:25:32;;;;;;;4.47;3.20;;;26.70;1.00;;;;;;5029035;28;20783;-84
2023/06/19 08:28:20;;;;;;;4.30;3.90;;;26.90;1.00;;;;;;5031839;28;20528;-83
2023/06/19 08:31:33;;;;;;;4.07;3.77;;;26.90;1.00;;;;;;5038207;28;20435;-83
2023/06/19 08:37:26;;;;;;;3.80;3.50;;;26.80;1.00;;;;;;5025224;28;20779;-83
2023/06/19 08:39:52;;;;;;;5.60;3.70;;;27.10;1.00;;;;;;5040112;28;20406;-83
2023/06/19 08:42:32;;;;;;;6.57;3.33;;;26.80;1.00;;;;;;5055535;28;20911;-84
2023/06/19 08:51:42;;;;;;;8.20;4.90;;;;;;;;;;5037049;28;20378;-88
2023/06/19 08:54:44;;;;;;;4.33;3.93;;;27.10;1.00;;;;;;5046190;28;20419;-88
2023/06/19 08:57:18;;;;;;;8.70;4.50;;;27.30;1.00;;;;;;5036662;28;20423;-88
2023/06/19 09:00:22;;;;;;;4.30;3.43;;;27.60;1.00;;;;;;5032066;28;20438;-86
2023/06/19 09:06:10;;;;;;;4.60;4.20;;;;;;;;;;5032165;28;20428;-88
2023/06/19 09:09:13;;;;;;;4.20;3.80;;;27.80;1.00;;;;;;5035315;28;20426;-88
2023/06/19 09:18:47;;;;;;;11.03;4.07;;;27.80;1.00;;;;;;5002116;28;20425;-84
2023/06/19 09:24:59;;;;;;;5.70;4.10;;;28.10;1.00;;;;;;4997656;28;20427;-83
2023/06/19 09:34:08;;;;;;;4.20;3.73;;;28.40;1.00;;;;;;4975819;28;20392;-88
2023/06/19 09:37:08;;;;;;;3.50;3.20;;;28.40;1.00;;;;;;4999036;28;20451;-88
2023/06/19 09:39:37;;;;;;;8.37;4.00;;;28.80;1.00;;;;;;4994803;28;20419;-89
2023/06/19 09:42:56;;;;;;;4.90;3.80;;;29.10;1.00;;;;;;4978830;28;20527;-88
2023/06/19 09:45:23;;;;;;;4.33;3.53;;;29.40;1.00;;;;;;5001978;28;20442;-84
2023/06/19 09:51:40;;;;;;;3.77;3.47;;;29.00;1.00;;;;;;5051007;28;20510;-84
2023/06/19 09:54:15;;;;;;;4.20;3.80;;;29.40;1.00;;;;;;5034215;28;20418;-84
2023/06/19 09:56:55;;;;;;;4.03;3.67;;;29.10;1.00;;;;;;5050714;28;20429;-84
2023/06/19 10:03:04;;;;;;;4.27;3.57;;;29.10;1.00;;;;;;5035628;28;20401;-88
2023/06/19 10:09:07;;;;;;;9.80;3.37;;;29.90;1.00;;;;;;5036286;28;20454;-89
2023/06/19 10:15:50;;;;;;;6.63;3.73;;;30.00;1.00;;;;;;5023990;28;20539;-89
2023/06/19 10:21:45;;;;;;;6.50;3.47;;;30.30;1.00;;;;;;5017121;28;20518;-84
2023/06/19 10:27:56;;;;;;;3.70;3.40;;;30.20;1.00;;;;;;5034269;28;20449;-83
2023/06/19 10:30:34;;;;;;;7.30;3.80;;;30.20;1.00;;;;;;5034744;28;20414;-82
2023/06/19 10:33:02;;;;;;;7.33;3.90;;;29.80;1.00;;;;;;5034655;28;20419;-75
2023/06/19 10:35:28;;;;;;;3.80;3.50;;;29.60;1.00;;;;;;5034113;28;20461;-75
2023/06/19 10:37:54;;;;;;;3.43;3.23;;;29.80;1.00;;;;;;5043139;28;20427;-75
2023/06/19 10:40:20;;;;;;;3.90;3.60;;;29.60;1.00;;;;;;5032662;28;20219;-74
2023/06/19 10:42:46;;;;;;;4.17;3.83;;;29.50;1.00;;;;;;5042061;28;20461;-75
2023/06/19 10:45:15;;;;;;;7.00;3.70;;;29.50;1.00;;;;;;5034293;28;20185;-75
2023/06/19 10:47:42;;;;;;;6.73;3.17;;;29.70;1.00;;;;;;5034937;28;20411;-75
2023/06/19 10:50:12;;;;;;;3.53;3.23;;;29.90;1.00;;;;;;5034004;28;20556;-75
2023/06/19 10:52:42;;;;;;;6.00;3.50;;;29.90;1.00;;;;;;5033877;28;20509;-75
2023/06/19 10:55:09;;;;;;;3.20;3.00;;;29.80;1.00;;;;;;5034246;28;20828;-75
2023/06/19 10:57:35;;;;;;;4.40;4.00;;;29.90;1.00;;;;;;5038779;28;20412;-74
2023/06/19 11:00:06;;;;;;;3.80;3.30;;;30.30;1.00;;;;;;5034547;28;20469;-75
2023/06/19 11:02:32;;;;;;;6.20;3.33;;;30.50;1.00;;;;;;5034365;28;20169;-74
2023/06/19 11:04:58;;;;;;;12.83;3.30;;;30.70;1.00;;;;;;5041026;28;20426;-74
2023/06/19 11:07:23;;;;;;;4.57;3.23;;;30.90;1.00;;;;;;5032817;28;20427;-75
2023/06/19 11:09:49;;;;;;;3.53;3.33;;;31.00;1.00;;;;;;5042814;28;20187;-75
2023/06/19 11:12:26;;;;;;;4.23;3.47;;;30.70;1.00;;;;;;5032298;28;20522;-74
2023/06/19 11:14:52;;;;;;;5.57;3.70;;;30.70;1.00;;;;;;5019526;28;20458;-74
2023/06/19 11:17:22;;;;;;;7.87;4.13;;;30.70;1.00;;;;;;5033197;28;20443;-82
2023/06/19 11:19:48;;;;;;;5.50;3.90;;;30.60;1.00;;;;;;5033738;28;20177;-82
2023/06/19 11:22:54;;;;;;;3.37;3.07;;;30.50;1.00;;;;;;5033508;28;20418;-82
2023/06/19 11:25:20;;;;;;;3.93;3.60;;;30.40;1.00;;;;;;5032502;28;20184;-82
2023/06/19 11:28:04;;;;;;;3.30;3.00;;;30.50;1.00;;;;;;5033861;28;20391;-82
2023/06/19 11:31:03;;;;;;;3.13;2.90;;;30.50;1.00;;;;;;5033738;28;20486;-82
2023/06/19 11:33:59;;;;;;;4.47;3.13;;;30.50;1.00;;;;;;5034282;28;20774;-82
2023/06/19 11:36:40;;;;;;;4.13;2.70;;;30.70;1.00;;;;;;5033451;28;20482;-82
2023/06/19 11:39:11;;;;;;;3.10;2.90;;;30.70;1.00;;;;;;5033942;28;20454;-82
2023/06/19 11:41:39;;;;;;;3.40;3.20;;;30.80;1.00;;;;;;5033680;28;20956;-82
2023/06/19 11:44:20;;;;;;;3.70;3.40;;;30.80;1.00;;;;;;5038570;28;20980;-82
2023/06/19 11:46:46;;;;;;;5.50;3.10;;;30.80;1.00;;;;;;5050673;28;20876;-74
2023/06/19 11:49:14;;;;;;;3.30;3.00;;;31.10;1.00;;;;;;5033551;28;20423;-74
2023/06/19 11:51:40;;;;;;;4.33;3.33;;;30.90;1.00;;;;;;5033659;28;20411;-75
2023/06/19 11:54:09;;;;;;;6.93;4.07;;;31.00;1.00;;;;;;5031446;28;20825;-75
2023/06/19 11:56:36;;;;;;;4.87;3.40;;;30.90;1.00;;;;;;5033163;28;21053;-74
2023/06/19 11:59:03;;;;;;;3.90;3.43;;;30.80;1.00;;;;;;5034237;28;20462;-74
2023/06/19 12:01:34;;;;;;;5.43;3.63;;;30.80;1.00;;;;;;5048848;28;20485;-80
2023/06/19 12:04:00;;;;;;;4.77;3.83;;;30.70;1.00;;;;;;5033435;28;20434;-74
2023/06/19 12:06:26;;;;;;;7.10;4.20;;;30.70;1.00;;;;;;5033465;28;20465;-75
2023/06/19 12:08:52;;;;;;;3.70;3.40;;;30.90;1.00;;;;;;5033582;28;20477;-75
2023/06/19 12:11:18;;;;;;;4.40;4.00;;;30.90;1.00;;;;;;5022798;28;20941;-74
2023/06/19 12:13:44;;;;;;;4.70;3.27;;;30.90;1.00;;;;;;5032895;28;20177;-74
2023/06/19 12:16:13;;;;;;;6.90;3.30;;;31.10;1.00;;;;;;5034244;28;20689;-75
2023/06/19 12:18:50;;;;;;;4.70;3.10;;;31.20;1.00;;;;;;5031649;28;20423;-75
2023/06/19 12:21:20;;;;;;;5.13;3.63;;;31.40;1.00;;;;;;5036284;28;20452;-75
2023/06/19 12:23:47;;;;;;;3.50;3.20;;;31.60;1.00;;;;;;5034737;28;20487;-74
2023/06/19 12:26:13;;;;;;;3.40;3.10;;;31.70;1.00;;;;;;5034256;28;20423;-74
2023/06/19 12:28:39;;;;;;;3.77;3.23;;;31.60;1.00;;;;;;5034498;28;20437;-74
2023/06/19 12:31:05;;;;;;;3.73;3.30;;;31.30;1.00;;;;;;5026251;28;20181;-74
2023/06/19 12:33:31;;;;;;;3.80;3.50;;;31.20;1.00;;;;;;5037222;28;20191;-74
2023/06/19 12:35:56;;;;;;;3.73;3.47;;;31.40;1.00;;;;;;5035549;28;20287;-73
2023/06/19 12:38:22;;;;;;;4.40;3.63;;;31.40;1.00;;;;;;5055240;28;20180;-74
2023/06/19 12:40:48;;;;;;;6.03;3.37;;;31.50;1.00;;;;;;5035282;28;20227;-74
2023/06/19 12:43:14;;;;;;;3.53;3.23;;;31.70;1.00;;;;;;5034655;28;21048;-74
2023/06/19 12:45:44;;;;;;;4.70;3.03;;;31.60;1.00;;;;;;5033056;28;20177;-74
2023/06/19 12:48:50;;;;;;;5.70;3.17;;;31.70;1.00;;;;;;5029044;28;20215;-84
2023/06/19 12:51:45;;;;;;;8.47;3.03;;;31.70;1.00;;;;;;5044006;28;20410;-82
2023/06/19 12:54:44;;;;;;;5.40;3.20;;;32.20;1.00;;;;;;5044539;28;20419;-82
2023/06/19 12:57:10;;;;;;;3.70;3.23;;;32.20;1.00;;;;;;5040787;28;20426;-82
2023/06/19 12:59:36;;;;;;;3.30;3.00;;;31.90;1.00;;;;;;5051501;28;20447;-82
2023/06/19 13:02:08;;;;;;;4.60;2.90;;;32.00;1.00;;;;;;5049443;28;20516;-84
2023/06/19 13:07:56;;;;;;;6.13;2.90;;;31.90;1.00;;;;;;5038773;28;21104;-96
2023/06/19 13:17:06;;;;;;;3.20;2.90;;;32.60;1.00;;;;;;5042106;28;20434;-96
2023/06/19 13:19:32;;;;;;;10.30;2.87;;;32.20;1.00;;;;;;5033450;28;20423;-82
2023/06/19 13:25:20;;;;;;;2.97;2.73;;;32.40;1.00;;;;;;5030500;28;20473;-84
2023/06/19 13:28:14;;;;;;;3.60;2.80;;;32.30;1.00;;;;;;5025180;28;20918;-82
2023/06/19 13:30:51;;;;;;;3.20;2.90;;;32.40;1.00;;;;;;5036006;28;20542;-82
2023/06/19 13:36:39;;;;;;;3.20;2.90;;;32.40;1.00;;;;;;5040759;28;20395;-96
2023/06/19 13:42:28;;;;;;;4.03;2.60;;;;;;;;;;5038370;28;20469;-95
2023/06/19 13:48:15;;;;;;;3.93;2.90;;;32.70;1.00;;;;;;5041179;28;20370;-83
2023/06/19 13:50:58;;;;;;;2.83;2.60;;;32.40;1.00;;;;;;5035483;28;20780;-82
2023/06/19 13:53:33;;;;;;;2.30;2.20;;;32.50;1.00;;;;;;5035368;28;20179;-82
2023/06/19 13:55:58;;;;;;;2.53;2.33;;;32.80;1.00;;;;;;5034678;28;20450;-82
2023/06/19 13:58:44;;;;;;;2.70;2.50;;;33.10;1.00;;;;;;5042374;28;20419;-82
2023/06/19 14:01:32;;;;;;;3.17;2.30;;;33.00;1.00;;;;;;5040335;28;20175;-82
2023/06/19 14:07:23;;;;;;;6.93;2.83;;;32.80;1.00;;;;;;5041276;28;20429;-96
2023/06/19 14:13:10;;;;;;;2.30;2.20;;;32.30;1.00;;;;;;5039358;28;20456;-87
2023/06/19 14:16:17;;;;;;;4.23;2.30;;;32.40;1.00;;;;;;5034706;28;20509;-96
2023/06/19 14:18:43;;;;;;;5.77;2.60;;;32.60;1.00;;;;;;5038864;28;20165;-94
2023/06/19 14:24:30;;;;;;;7.90;3.03;;;32.20;1.00;;;;;;5036234;28;20215;-96
2023/06/19 14:30:18;;;;;;;1.93;1.80;;;33.00;1.00;;;;;;5036079;28;20172;-96
2023/06/19 14:33:14;;;;;;;2.80;2.50;;;32.90;1.00;;;;;;5034884;28;20895;-96
2023/06/19 14:35:41;;;;;;;2.50;2.30;;;32.80;1.00;;;;;;5031536;28;20458;-82
2023/06/19 14:38:07;;;;;;;2.53;2.30;;;32.80;1.00;;;;;;5037905;28;20429;-82
2023/06/19 14:40:39;;;;;;;2.60;2.50;;;32.80;1.00;;;;;;5034572;28;20408;-82
2023/06/19 14:43:04;;;;;;;2.40;2.20;;;33.10;1.00;;;;;;5033084;28;20286;-83
2023/06/19 14:45:30;;;;;;;2.50;2.30;;;33.30;1.00;;;;;;5049313;28;20435;-83
2023/06/19 14:47:57;;;;;;;1.90;1.80;;;33.30;1.00;;;;;;5035147;28;20188;-83
2023/06/19 14:53:44;;;;;;;2.50;1.90;;;33.50;1.00;;;;;;5035392;28;20367;-96
2023/06/19 14:56:10;;;;;;;2.20;2.10;;;33.70;1.00;;;;;;5030754;28;20454;-91
2023/06/19 14:58:35;;;;;;;2.60;2.40;;;33.90;1.00;;;;;;5032888;28;20176;-88
2023/06/19 15:01:01;;;;;;;2.70;2.50;;;34.20;1.00;;;;;;5028606;28;20169;-86
2023/06/19 15:03:27;;;;;;;2.47;2.27;;;34.50;1.00;;;;;;5032918;28;20263;-83
2023/06/19 15:05:53;;;;;;;2.57;2.37;;;34.80;1.00;;;;;;5020300;28;20448;-93
2023/06/19 15:08:21;;;;;;;2.13;2.00;;;34.80;1.00;;;;;;5035133;28;20208;-94
2023/06/19 15:10:49;;;;;;;2.90;2.37;;;35.50;1.00;;;;;;5031881;28;20435;-91
2023/06/19 15:13:21;;;;;;;1.90;1.80;;;37.30;1.00;;;;;;5040958;28;20430;-91
2023/06/19 15:15:58;;;;;;;9.10;3.20;;;38.10;1.00;;;;;;5032994;28;20524;-91
2023/06/19 15:18:27;;;;;;;2.13;2.03;;;38.80;1.00;;;;;;5039423;28;20513;-92
2023/06/19 15:20:57;;;;;;;3.23;2.40;;;39.30;1.00;;;;;;5032968;28;20426;-91
2023/06/19 15:26:51;;;;;;;2.43;2.30;;;40.50;1.00;;;;;;5019044;28;20737;-96
2023/06/19 15:32:57;;;;;;;2.33;2.13;;;40.50;1.00;;;;;;5027524;28;20206;-92
2023/06/19 15:35:56;;;;;;;3.17;1.60;;;39.30;1.00;;;;;;5033819;28;20988;-91
2023/06/19 15:38:56;;;;;;;2.37;2.20;;;38.50;1.00;;;;;;5044201;28;20434;-93
2023/06/19 15:41:56;;;;;;;2.97;2.17;;;36.90;1.00;;;;;;5033139;28;20510;-94
2023/06/19 15:44:56;;;;;;;2.30;2.20;;;36.10;1.00;;;;;;5033177;28;20439;-89
2023/06/19 15:47:27;;;;;;;2.10;2.00;;;35.50;1.00;;;;;;5057541;28;20418;-88
2023/06/19 15:49:57;;;;;;;2.60;2.40;;;35.00;1.00;;;;;;5045502;28;20933;-88
2023/06/19 15:52:56;;;;;;;1.83;1.73;;;34.40;1.00;;;;;;5053102;28;20793;-88
2023/06/19 15:55:50;;;;;;;3.00;2.07;;;33.80;1.00;;;;;;5042146;28;20533;-87
2023/06/19 15:58:56;;;;;;;2.80;2.50;;;33.80;1.00;;;;;;5049166;28;20485;-93
2023/06/19 16:01:40;;;;;;;4.87;2.60;;;33.80;1.00;;;;;;5033104;28;21001;-91
2023/06/19 16:04:26;;;;;;;4.83;2.27;;;33.80;1.00;;;;;;5039065;28;20430;-84
2023/06/19 16:06:57;;;;;;;6.20;2.67;;;33.90;1.00;;;;;;5035206;28;20430;-82
2023/06/19 16:09:27;;;;;;;2.57;2.37;;;33.70;1.00;;;;;;5053264;28;20399;-82
2023/06/19 16:11:57;;;;;;;2.30;2.10;;;33.60;1.00;;;;;;5047767;28;20511;-81
2023/06/19 16:14:23;;;;;;;2.33;2.13;;;34.70;1.00;;;;;;5047621;28;20437;-81
2023/06/19 16:16:57;;;;;;;5.90;2.33;;;35.50;1.00;;;;;;5029332;28;20436;-81
2023/06/19 16:19:22;;;;;;;4.60;2.53;;;35.50;1.00;;;;;;5025076;28;20180;-86
2023/06/19 16:22:27;;;;;;;9.00;2.50;;;35.30;1.00;;;;;;5033251;28;20458;-91
2023/06/19 16:28:50;;;;;;;2.40;2.20;;;34.30;1.00;;;;;;5026478;28;20961;-89
2023/06/19 16:31:56;;;;;;;4.47;2.17;;;33.70;1.00;;;;;;5030442;28;20435;-89
2023/06/19 16:34:27;;;;;;;2.57;2.33;;;33.40;1.00;;;;;;5041897;28;20460;-87
2023/06/19 16:37:00;;;;;;;2.53;2.30;;;33.20;1.00;;;;;;5038098;28;20431;-86
2023/06/19 16:39:33;;;;;;;2.60;2.50;;;33.00;1.00;;;;;;5029498;28;20415;-86
2023/06/19 16:42:03;;;;;;;6.50;2.80;;;32.70;1.00;;;;;;5026437;28;20435;-86
2023/06/19 16:44:38;;;;;;;2.73;2.50;;;;;;;;;;5032639;28;20442;-85
2023/06/19 16:47:15;;;;;;;5.70;2.70;;;32.70;1.00;;;;;;5049759;28;20823;-85
2023/06/19 16:49:57;;;;;;;4.40;4.10;;;32.60;1.00;;;;;;5024208;28;20502;-85
2023/06/19 16:52:27;;;;;;;4.03;3.10;;;32.70;1.00;;;;;;5021189;28;20786;-85
2023/06/19 16:54:57;;;;;;;4.80;2.93;;;32.90;1.00;;;;;;5031581;28;20451;-84
2023/06/19 16:57:28;;;;;;;11.90;2.60;;;32.50;1.00;;;;;;5032135;28;20411;-85
2023/06/19 16:59:58;;;;;;;3.80;2.57;;;32.60;1.00;;;;;;5036524;28;20913;-85
2023/06/19 17:02:27;;;;;;;3.07;2.60;;;32.60;1.00;;;;;;5028183;28;20430;-85
2023/06/19 17:05:26;;;;;;;3.23;2.90;;;32.60;1.00;;;;;;5044909;28;20502;-86
2023/06/19 17:07:57;;;;;;;3.00;2.67;;;32.30;1.00;;;;;;5035157;28;20426;-85
2023/06/19 17:10:27;;;;;;;3.27;3.00;;;31.90;1.00;;;;;;5036535;28;20407;-85
2023/06/19 17:12:57;;;;;;;7.03;3.20;;;31.70;1.00;;;;;;5040167;28;20423;-85
2023/06/19 17:15:22;;;;;;;4.93;2.63;;;31.50;1.00;;;;;;5035317;28;20457;-85
2023/06/19 17:18:09;;;;;;;8.23;4.87;;;31.20;1.00;;;;;;5045778;28;20443;-85
2023/06/19 17:20:56;;;;;;;7.67;4.23;;;30.90;1.00;;;;;;5035525;28;20176;-85
2023/06/19 17:23:22;;;;;;;11.40;4.43;;;30.90;1.00;;;;;;5033238;28;20431;-85
2023/06/19 17:25:57;;;;;;;3.53;3.23;;;30.80;1.00;;;;;;5035707;28;20415;-85
2023/06/19 17:28:27;;;;;;;2.80;2.60;;;30.70;1.00;;;;;;5050718;28;20431;-84